createdAt,value
2019-03-09T00:00:59.439Z,79.75
2019-03-09T00:03:27.884Z,79.76
2019-03-09T00:05:56.281Z,79.47
2019-03-09T00:08:24.685Z,78.91
2019-03-09T00:10:53.253Z,78.88
2019-03-09T00:13:21.654Z,78.88
2019-03-09T00:15:50.124Z,78.60
2019-03-09T00:18:18.503Z,77.85
2019-03-09T00:20:46.939Z,76.82
2019-03-09T00:23:22.849Z,77.72
2019-03-09T00:25:57.111Z,76.68
2019-03-09T00:28:27.376Z,76.63
2019-03-09T00:31:13.389Z,75.97
2019-03-09T00:33:41.886Z,77.42
2019-03-09T00:36:10.292Z,78.11
2019-03-09T00:38:38.682Z,79.86
2019-03-09T00:41:07.108Z,79.76
2019-03-09T00:43:35.497Z,81.34
2019-03-09T00:46:03.979Z,82.40
2019-03-09T00:48:32.387Z,81.76
2019-03-09T00:51:00.853Z,82.13
2019-03-09T00:53:29.255Z,83.83
2019-03-09T00:55:57.709Z,84.30
2019-03-09T00:58:26.172Z,84.01
2019-03-09T01:00:54.658Z,84.95
2019-03-09T01:03:23.151Z,85.20
2019-03-09T01:05:51.630Z,85.97
2019-03-09T01:08:20.114Z,86.62
2019-03-09T01:10:48.655Z,86.22
2019-03-09T01:13:17.064Z,87.43
2019-03-09T01:15:45.524Z,87.61
2019-03-09T01:18:14.000Z,88.05
2019-03-09T01:20:42.415Z,88.60
2019-03-09T01:23:10.863Z,88.04
2019-03-09T01:25:39.266Z,88.20
2019-03-09T01:28:07.971Z,87.36
2019-03-09T01:30:36.450Z,87.25
2019-03-09T01:33:04.996Z,87.35
2019-03-09T01:35:33.473Z,87.94
2019-03-09T01:38:01.877Z,88.71
2019-03-09T01:40:30.383Z,89.10
2019-03-09T01:42:58.866Z,89.15
2019-03-09T01:45:27.341Z,89.70
2019-03-09T01:47:55.817Z,89.38
2019-03-09T01:50:24.221Z,89.33
2019-03-09T01:52:52.660Z,89.44
2019-03-09T01:55:21.149Z,89.76
2019-03-09T01:57:49.553Z,89.96
2019-03-09T02:00:19.562Z,90.14
2019-03-09T02:02:48.100Z,90.68
2019-03-09T02:05:16.579Z,89.87
2019-03-09T02:07:45.052Z,89.98
2019-03-09T02:10:15.088Z,89.61
2019-03-09T02:12:43.641Z,90.24
2019-03-09T02:15:15.998Z,90.59
2019-03-09T02:17:44.546Z,90.58
2019-03-09T02:20:14.871Z,90.74
2019-03-09T02:22:43.353Z,91.01
2019-03-09T02:25:12.609Z,91.12
2019-03-09T02:27:41.015Z,91.33
2019-03-09T02:30:19.558Z,91.72
2019-03-09T02:32:48.040Z,91.69
2019-03-09T02:35:17.801Z,92.10
2019-03-09T02:37:46.253Z,92.23
2019-03-09T02:40:16.563Z,92.62
2019-03-09T02:42:45.011Z,92.86
2019-03-09T02:45:25.351Z,93.20
2019-03-09T02:47:53.824Z,93.55
2019-03-09T02:50:22.228Z,94.06
2019-03-09T02:52:50.630Z,94.16
2019-03-09T02:55:19.108Z,94.57
2019-03-09T02:57:47.532Z,94.65
2019-03-09T03:00:18.157Z,94.72
2019-03-09T03:02:48.360Z,95.06
2019-03-09T03:05:16.930Z,95.31
2019-03-09T03:07:45.381Z,95.35
2019-03-09T03:10:15.513Z,95.80
2019-03-09T03:12:43.892Z,95.66
2019-03-09T03:15:14.903Z,95.83
2019-03-09T03:17:43.325Z,95.84
2019-03-09T03:20:11.831Z,96.16
2019-03-09T03:22:40.249Z,96.33
2019-03-09T03:25:08.725Z,96.56
2019-03-09T03:27:37.160Z,96.79
2019-03-09T03:30:07.486Z,97.04
2019-03-09T03:32:36.573Z,97.17
2019-03-09T03:35:07.641Z,97.31
2019-03-09T03:37:36.014Z,97.40
2019-03-09T03:40:07.359Z,97.51
2019-03-09T03:42:35.787Z,97.54
2019-03-09T03:45:06.238Z,97.78
2019-03-09T03:47:34.648Z,98.10
2019-03-09T03:50:03.192Z,98.32
2019-03-09T03:52:31.600Z,98.42
2019-03-09T03:55:00.312Z,98.35
2019-03-09T03:57:29.079Z,98.15
2019-03-09T03:59:57.532Z,98.21
2019-03-09T04:02:25.964Z,98.44
2019-03-09T04:04:54.456Z,98.51
2019-03-09T04:07:22.914Z,98.60
2019-03-09T04:09:51.439Z,98.95
2019-03-09T04:12:20.098Z,98.96
2019-03-09T04:14:48.501Z,98.99
2019-03-09T04:17:16.919Z,99.12
2019-03-09T04:19:45.316Z,99.17
2019-03-09T04:22:13.724Z,99.13
2019-03-09T04:24:42.223Z,99.10
2019-03-09T04:27:10.759Z,99.23
2019-03-09T04:29:39.214Z,99.28
2019-03-09T04:32:07.689Z,99.49
2019-03-09T04:34:36.141Z,99.64
2019-03-09T04:37:04.713Z,99.68
2019-03-09T04:39:33.235Z,99.37
2019-03-09T04:42:01.640Z,99.39
2019-03-09T04:44:30.062Z,99.41
2019-03-09T04:46:58.455Z,99.51
2019-03-09T04:49:26.867Z,99.68
2019-03-09T04:51:55.267Z,99.77
2019-03-09T04:54:23.676Z,99.91
2019-03-09T04:56:52.095Z,100.00
2019-03-09T04:59:20.519Z,100.00
2019-03-09T05:01:48.926Z,100.00
2019-03-09T05:04:29.266Z,100.00
2019-03-09T05:06:57.673Z,99.99
2019-03-09T05:09:34.683Z,100.00
2019-03-09T05:12:03.109Z,100.00
2019-03-09T05:14:31.538Z,100.00
2019-03-09T05:16:59.991Z,100.00
2019-03-09T05:19:28.458Z,100.00
2019-03-09T05:21:56.858Z,99.99
2019-03-09T05:24:25.249Z,99.91
2019-03-09T05:26:53.654Z,99.81
2019-03-09T05:29:22.113Z,99.84
2019-03-09T05:31:50.521Z,99.67
2019-03-09T05:34:19.023Z,99.57
2019-03-09T05:36:47.415Z,99.62
2019-03-09T05:39:15.875Z,99.36
2019-03-09T05:41:44.289Z,99.06
2019-03-09T05:44:12.701Z,98.80
2019-03-09T05:46:41.146Z,98.85
2019-03-09T05:49:09.543Z,98.63
2019-03-09T05:51:37.981Z,98.73
2019-03-09T05:54:06.453Z,98.57
2019-03-09T05:56:34.908Z,98.48
2019-03-09T05:59:03.426Z,98.28
2019-03-09T06:01:31.975Z,98.10
2019-03-09T06:04:00.420Z,97.96
2019-03-09T06:06:28.804Z,97.94
2019-03-09T06:08:57.236Z,97.83
2019-03-09T06:11:25.657Z,97.70
2019-03-09T06:13:54.111Z,97.86
2019-03-09T06:16:22.617Z,97.89
2019-03-09T06:21:25.075Z,97.72
2019-03-09T06:23:53.485Z,97.75
2019-03-09T06:26:21.891Z,97.93
2019-03-09T06:28:50.353Z,97.69
2019-03-09T06:31:18.783Z,97.67
2019-03-09T06:33:47.192Z,97.67
2019-03-09T06:36:18.652Z,97.63
2019-03-09T06:38:52.119Z,97.66
2019-03-09T06:41:43.968Z,97.67
2019-03-09T06:44:12.460Z,97.43
2019-03-09T06:46:40.872Z,97.46
2019-03-09T06:49:09.303Z,97.29
2019-03-09T06:51:46.264Z,97.29
2019-03-09T06:54:14.710Z,97.30
2019-03-09T06:56:43.127Z,96.99
2019-03-09T06:59:11.545Z,96.81
2019-03-09T07:01:40.045Z,96.65
2019-03-09T07:04:08.470Z,96.52
2019-03-09T07:06:36.867Z,96.26
2019-03-09T07:09:06.420Z,96.49
2019-03-09T07:11:34.909Z,96.22
2019-03-09T07:14:39.587Z,96.12
2019-03-09T07:17:07.990Z,95.95
2019-03-09T07:19:36.424Z,95.59
2019-03-09T07:22:04.988Z,95.41
2019-03-09T07:24:33.445Z,95.40
2019-03-09T07:27:01.926Z,95.22
2019-03-09T07:29:30.358Z,95.40
2019-03-09T07:31:58.766Z,95.13
2019-03-09T07:34:27.852Z,95.14
2019-03-09T07:36:58.787Z,94.80
2019-03-09T07:39:27.217Z,94.51
2019-03-09T07:41:55.724Z,94.74
2019-03-09T07:44:24.128Z,94.56
2019-03-09T07:46:52.645Z,94.57
2019-03-09T07:49:21.070Z,94.51
2019-03-09T07:51:49.549Z,94.66
2019-03-09T07:54:17.901Z,94.67
2019-03-09T07:56:46.332Z,94.52
2019-03-09T07:59:14.761Z,94.33
2019-03-09T08:01:43.211Z,94.05
2019-03-09T08:04:11.664Z,94.18
2019-03-09T08:06:40.039Z,93.93
2019-03-09T08:09:09.181Z,93.67
2019-03-09T08:11:37.625Z,93.60
2019-03-09T08:14:06.149Z,93.43
2019-03-09T08:16:35.756Z,93.14
2019-03-09T08:19:04.746Z,93.32
2019-03-09T08:21:33.174Z,93.05
2019-03-09T08:24:01.599Z,93.19
2019-03-09T08:26:30.028Z,92.76
2019-03-09T08:28:58.448Z,92.58
2019-03-09T08:31:26.849Z,92.28
2019-03-09T08:33:55.254Z,92.48
2019-03-09T08:36:23.793Z,92.21
2019-03-09T08:38:52.203Z,92.33
2019-03-09T08:41:20.602Z,92.53
2019-03-09T08:43:49.064Z,92.12
2019-03-09T08:46:17.549Z,91.47
2019-03-09T08:48:46.051Z,91.71
2019-03-09T08:51:14.474Z,91.53
2019-03-09T08:53:42.853Z,91.25
2019-03-09T08:56:11.313Z,90.63
2019-03-09T08:58:39.747Z,90.38
2019-03-09T09:01:08.301Z,90.56
2019-03-09T09:03:36.696Z,90.21
2019-03-09T09:06:05.249Z,90.50
2019-03-09T09:08:33.635Z,90.12
2019-03-09T09:11:02.022Z,90.51
2019-03-09T09:13:30.469Z,89.13
2019-03-09T09:15:58.890Z,88.90
2019-03-09T09:18:27.328Z,88.64
2019-03-09T09:20:55.759Z,88.80
2019-03-09T09:23:24.191Z,88.72
2019-03-09T09:25:52.674Z,88.26
2019-03-09T09:28:21.158Z,88.75
2019-03-09T09:30:49.790Z,88.71
2019-03-09T09:33:18.232Z,87.65
2019-03-09T09:35:46.737Z,87.29
2019-03-09T09:38:15.201Z,86.72
2019-03-09T09:40:43.773Z,86.43
2019-03-09T09:43:12.191Z,87.08
2019-03-09T09:45:40.770Z,86.58
2019-03-09T09:48:09.335Z,86.02
2019-03-09T09:50:37.772Z,85.99
2019-03-09T09:53:06.210Z,85.75
2019-03-09T09:55:34.646Z,85.65
2019-03-09T09:58:03.175Z,85.56
2019-03-09T10:00:31.580Z,85.34
2019-03-09T10:03:00.061Z,85.08
2019-03-09T10:05:28.576Z,85.19
2019-03-09T10:07:56.960Z,85.48
2019-03-09T10:10:25.399Z,85.27
2019-03-09T10:12:55.802Z,83.96
2019-03-09T10:15:26.625Z,84.35
2019-03-09T10:17:55.092Z,84.10
2019-03-09T10:20:24.062Z,84.28
2019-03-09T10:23:03.033Z,83.60
2019-03-09T10:25:22.805Z,83.09
2019-03-09T10:27:51.310Z,82.76
2019-03-09T10:30:22.434Z,82.92
2019-03-09T10:32:50.938Z,83.43
2019-03-09T10:35:19.506Z,81.88
2019-03-09T10:37:49.214Z,82.43
2019-03-09T10:40:17.868Z,82.12
2019-03-09T10:42:46.374Z,82.27
2019-03-09T10:45:21.537Z,80.91
2019-03-09T10:47:50.959Z,81.04
2019-03-09T10:50:20.450Z,80.60
2019-03-09T10:52:49.026Z,79.49
2019-03-09T10:55:22.913Z,78.72
2019-03-09T10:57:51.442Z,78.82
2019-03-09T11:00:30.382Z,79.49
2019-03-09T11:02:58.980Z,78.12
2019-03-09T11:05:27.443Z,78.28
2019-03-09T11:07:56.138Z,78.20
2019-03-09T11:10:24.711Z,77.46
2019-03-09T11:12:53.204Z,79.12
2019-03-09T11:15:21.740Z,78.10
2019-03-09T11:17:50.268Z,77.74
2019-03-09T11:20:20.159Z,78.66
2019-03-09T11:22:48.675Z,76.96
2019-03-09T11:25:17.157Z,76.69
2019-03-09T11:27:45.652Z,76.52
2019-03-09T11:30:28.196Z,75.87
2019-03-09T11:32:56.684Z,75.73
2019-03-09T11:35:25.171Z,75.72
2019-03-09T11:37:53.615Z,75.71
2019-03-09T11:40:22.118Z,75.40
2019-03-09T11:42:50.581Z,74.90
2019-03-09T11:45:19.924Z,75.14
2019-03-09T11:47:48.489Z,74.68
2019-03-09T11:50:20.198Z,75.40
2019-03-09T11:52:48.667Z,74.82
2019-03-09T11:55:17.746Z,74.91
2019-03-09T11:57:46.310Z,74.64
2019-03-09T12:00:37.619Z,74.34
2019-03-09T12:03:06.060Z,73.84
2019-03-09T12:05:34.587Z,73.22
2019-03-09T12:08:03.135Z,73.56
2019-03-09T12:10:31.594Z,72.97
2019-03-09T12:13:00.063Z,72.73
2019-03-09T12:15:28.493Z,72.80
2019-03-09T12:17:56.889Z,71.53
2019-03-09T12:20:27.079Z,70.47
2019-03-09T12:23:00.940Z,69.19
2019-03-09T12:25:25.659Z,69.00
2019-03-09T12:27:54.083Z,68.68
2019-03-09T12:30:22.567Z,69.03
2019-03-09T12:32:51.147Z,68.32
2019-03-09T12:35:19.630Z,68.18
2019-03-09T12:37:48.065Z,67.46
2019-03-09T12:40:20.762Z,67.48
2019-03-09T12:42:49.340Z,67.91
2019-03-09T12:45:18.252Z,65.58
2019-03-09T12:47:46.835Z,66.40
2019-03-09T12:50:18.328Z,65.90
2019-03-09T12:52:46.739Z,66.65
2019-03-09T12:55:15.493Z,66.54
2019-03-09T12:57:43.972Z,66.28
2019-03-09T13:00:20.494Z,67.21
2019-03-09T13:02:48.990Z,67.16
2019-03-09T13:05:21.115Z,67.70
2019-03-09T13:07:50.109Z,68.40
2019-03-09T13:10:18.621Z,68.15
2019-03-09T13:12:47.217Z,68.88
2019-03-09T13:15:16.705Z,67.64
2019-03-09T13:17:45.557Z,65.74
2019-03-09T13:20:16.162Z,64.61
2019-03-09T13:22:44.760Z,65.31
2019-03-09T13:25:14.466Z,65.68
2019-03-09T13:27:42.976Z,64.73
2019-03-09T13:30:20.215Z,65.98
2019-03-09T13:32:48.690Z,65.89
2019-03-09T13:35:17.251Z,66.03
2019-03-09T13:37:45.673Z,65.36
2019-03-09T13:40:15.773Z,66.34
2019-03-09T13:42:44.394Z,68.21
2019-03-09T13:45:15.697Z,69.63
2019-03-09T13:47:44.183Z,69.01
2019-03-09T13:50:13.860Z,69.89
2019-03-09T13:52:42.579Z,70.91
2019-03-09T13:55:13.460Z,71.23
2019-03-09T13:57:42.456Z,71.87
2019-03-09T14:00:19.123Z,71.70
2019-03-09T14:02:47.606Z,72.29
2019-03-09T14:05:16.974Z,76.93
2019-03-09T14:07:45.423Z,80.90
2019-03-09T14:10:15.307Z,83.38
2019-03-09T14:12:43.839Z,85.86
2019-03-09T14:15:14.019Z,86.45
2019-03-09T14:17:42.542Z,87.72
2019-03-09T14:20:12.879Z,88.55
2019-03-09T14:22:41.388Z,88.55
2019-03-09T14:25:11.840Z,88.21
2019-03-09T14:27:40.287Z,87.58
2019-03-09T14:30:17.330Z,87.65
2019-03-09T14:32:45.838Z,87.13
2019-03-09T14:35:14.499Z,85.32
2019-03-09T14:37:42.991Z,84.23
2019-03-09T14:40:17.465Z,83.98
2019-03-09T14:42:45.943Z,82.60
2019-03-09T14:45:19.709Z,81.42
2019-03-09T14:47:48.125Z,80.65
2019-03-09T14:50:16.696Z,80.23
2019-03-09T14:52:45.085Z,79.46
2019-03-09T14:55:14.187Z,78.89
2019-03-09T14:57:42.790Z,79.83
2019-03-09T15:00:20.997Z,78.54
2019-03-09T15:02:49.422Z,77.87
2019-03-09T15:05:17.959Z,77.59
2019-03-09T15:07:46.526Z,76.74
2019-03-09T15:10:15.554Z,76.78
2019-03-09T15:12:44.040Z,77.03
2019-03-09T15:15:36.129Z,77.07
2019-03-09T15:18:04.621Z,78.34
2019-03-09T15:20:33.201Z,77.62
2019-03-09T15:23:01.599Z,75.79
2019-03-09T15:25:31.575Z,75.74
2019-03-09T15:28:00.199Z,75.41
2019-03-09T15:30:28.701Z,74.66
2019-03-09T15:32:57.170Z,73.86
2019-03-09T15:35:25.618Z,73.37
2019-03-09T15:37:54.104Z,72.22
2019-03-09T15:40:22.726Z,71.45
2019-03-09T15:42:51.215Z,70.96
2019-03-09T15:45:20.783Z,70.97
2019-03-09T15:47:49.352Z,71.66
2019-03-09T15:50:19.141Z,72.86
2019-03-09T15:52:47.811Z,71.74
2019-03-09T15:55:16.386Z,71.32
2019-03-09T15:57:44.922Z,71.94
2019-03-09T16:00:26.457Z,69.95
2019-03-09T16:02:54.964Z,70.77
2019-03-09T16:05:23.542Z,71.81
2019-03-09T16:07:52.097Z,72.60
2019-03-09T16:10:21.701Z,73.01
2019-03-09T16:12:50.158Z,73.15
2019-03-09T16:15:18.978Z,72.52
2019-03-09T16:17:47.457Z,72.30
2019-03-09T16:20:21.032Z,72.95
2019-03-09T16:22:49.582Z,71.45
2019-03-09T16:25:18.165Z,70.97
2019-03-09T16:27:46.652Z,71.40
2019-03-09T16:30:19.930Z,71.57
2019-03-09T16:32:48.499Z,71.30
2019-03-09T16:35:16.983Z,72.97
2019-03-09T16:37:46.657Z,80.83
2019-03-09T16:40:22.720Z,84.09
2019-03-09T16:42:51.136Z,84.49
2019-03-09T16:45:19.867Z,85.15
2019-03-09T16:47:48.455Z,83.65
2019-03-09T16:50:18.771Z,84.05
2019-03-09T16:52:47.234Z,83.21
2019-03-09T16:55:16.497Z,81.22
2019-03-09T16:57:44.986Z,80.27
2019-03-09T17:00:19.026Z,80.42
2019-03-09T17:02:47.587Z,81.30
2019-03-09T17:05:16.011Z,79.56
2019-03-09T17:07:44.641Z,78.84
2019-03-09T17:10:18.953Z,77.06
2019-03-09T17:12:47.354Z,74.97
2019-03-09T17:15:24.576Z,74.52
2019-03-09T17:17:53.107Z,75.57
2019-03-09T17:20:21.652Z,74.82
2019-03-09T17:22:50.085Z,74.33
2019-03-09T17:25:18.483Z,73.71
2019-03-09T17:27:46.920Z,74.34
2019-03-09T17:30:19.498Z,74.62
2019-03-09T17:32:48.373Z,74.10
2019-03-09T17:35:16.851Z,74.47
2019-03-09T17:37:45.250Z,73.80
2019-03-09T17:40:16.277Z,73.55
2019-03-09T17:42:44.926Z,74.51
2019-03-09T17:45:16.427Z,73.85
2019-03-09T17:47:44.914Z,73.75
2019-03-09T17:50:14.178Z,74.50
2019-03-09T17:52:42.712Z,74.86
2019-03-09T17:55:12.069Z,73.99
2019-03-09T17:57:40.583Z,74.20
2019-03-09T18:00:12.306Z,74.97
2019-03-09T18:02:40.724Z,75.02
2019-03-09T18:05:09.472Z,74.62
2019-03-09T18:07:37.898Z,73.84
2019-03-09T18:10:12.109Z,74.18
2019-03-09T18:12:40.607Z,73.61
2019-03-09T18:15:10.254Z,72.72
2019-03-09T18:17:38.687Z,72.86
2019-03-09T18:20:09.812Z,71.81
2019-03-09T18:22:38.223Z,71.60
2019-03-09T18:25:07.677Z,72.86
2019-03-09T18:27:36.108Z,72.51
2019-03-09T18:30:06.373Z,71.83
2019-03-09T18:32:34.825Z,72.27
2019-03-09T18:35:03.766Z,71.50
2019-03-09T18:37:32.234Z,70.93
2019-03-09T18:40:00.645Z,71.13
2019-03-09T18:42:29.078Z,71.36
2019-03-09T18:44:57.519Z,71.53
2019-03-09T18:47:26.018Z,70.37
2019-03-09T18:49:54.442Z,70.95
2019-03-09T18:52:22.847Z,70.16
2019-03-09T18:54:51.417Z,70.61
2019-03-09T18:57:19.889Z,71.18
2019-03-09T18:59:48.307Z,71.17
2019-03-09T19:02:16.807Z,71.61
2019-03-09T19:04:45.235Z,71.20
2019-03-09T19:07:13.749Z,71.25
2019-03-09T19:09:42.154Z,71.30
2019-03-09T19:12:10.660Z,71.86
2019-03-09T19:14:41.299Z,71.69
2019-03-09T19:17:09.335Z,71.73
2019-03-09T19:19:37.726Z,72.07
2019-03-09T19:22:06.237Z,72.20
2019-03-09T19:24:34.640Z,72.38
2019-03-09T19:27:03.146Z,72.34
2019-03-09T19:29:31.577Z,72.42
2019-03-09T19:31:59.979Z,72.48
2019-03-09T19:34:28.496Z,72.89
2019-03-09T19:36:56.889Z,72.76
2019-03-09T19:39:25.327Z,73.43
2019-03-09T19:41:53.757Z,72.87
2019-03-09T19:44:22.168Z,73.62
2019-03-09T19:46:50.609Z,73.57
2019-03-09T19:49:19.029Z,73.92
2019-03-09T19:51:47.434Z,73.58
2019-03-09T19:54:15.925Z,74.49
2019-03-09T19:56:44.368Z,73.76
2019-03-09T19:59:12.776Z,74.25
2019-03-09T20:01:41.272Z,74.27
2019-03-09T20:04:09.646Z,74.26
2019-03-09T20:06:38.068Z,74.23
2019-03-09T20:09:07.615Z,74.47
2019-03-09T20:11:36.096Z,74.62
2019-03-09T20:14:04.684Z,74.46
2019-03-09T20:16:33.079Z,73.98
2019-03-09T20:19:01.493Z,74.34
2019-03-09T20:21:29.923Z,73.75
2019-03-09T20:23:58.377Z,74.13
2019-03-09T20:26:26.776Z,73.67
2019-03-09T20:28:55.177Z,74.03
2019-03-09T20:31:23.624Z,73.91
2019-03-09T20:33:52.120Z,73.98
2019-03-09T20:36:20.533Z,74.84
2019-03-09T20:38:48.976Z,74.29
2019-03-09T20:41:17.471Z,74.29
2019-03-09T20:43:45.888Z,74.02
2019-03-09T20:46:14.330Z,73.63
2019-03-09T20:48:42.788Z,72.62
2019-03-09T20:51:11.211Z,71.89
2019-03-09T20:53:39.623Z,72.75
2019-03-09T20:56:08.101Z,71.26
2019-03-09T20:58:39.195Z,71.08
2019-03-09T21:01:07.677Z,70.66
2019-03-09T21:03:36.119Z,69.43
2019-03-09T21:06:04.576Z,69.27
2019-03-09T21:08:32.967Z,68.91
2019-03-09T21:11:04.253Z,68.15
2019-03-09T21:13:31.534Z,67.51
2019-03-09T21:15:59.997Z,67.32
2019-03-09T21:18:28.461Z,67.07
2019-03-09T21:20:56.860Z,67.14
2019-03-09T21:23:25.327Z,65.56
2019-03-09T21:25:53.797Z,66.21
2019-03-09T21:28:22.201Z,65.29
2019-03-09T21:30:50.683Z,65.39
2019-03-09T21:33:19.110Z,65.56
2019-03-09T21:35:47.511Z,64.41
2019-03-09T21:38:16.013Z,65.11
2019-03-09T21:40:44.426Z,65.54
2019-03-09T21:43:12.899Z,65.13
2019-03-09T21:45:41.379Z,64.75
2019-03-09T21:48:09.797Z,64.54
2019-03-09T21:50:38.303Z,64.69
2019-03-09T21:53:06.735Z,64.89
2019-03-09T21:55:35.307Z,65.17
2019-03-09T21:58:03.805Z,65.56
2019-03-09T22:00:32.355Z,65.43
2019-03-09T22:03:00.800Z,65.94
2019-03-09T22:05:29.188Z,65.75
2019-03-09T22:07:57.626Z,65.82
2019-03-09T22:10:26.097Z,65.89
2019-03-09T22:12:54.525Z,66.13
2019-03-09T22:15:23.011Z,65.53
2019-03-09T22:17:51.418Z,66.73
2019-03-09T22:20:20.697Z,66.30
2019-03-09T22:22:49.380Z,66.35
2019-03-09T22:25:17.978Z,66.31
2019-03-09T22:27:46.398Z,66.44
2019-03-09T22:30:18.817Z,66.52
2019-03-09T22:32:47.242Z,66.57
2019-03-09T22:35:15.809Z,67.32
2019-03-09T22:37:44.204Z,66.72
2019-03-09T22:40:17.041Z,67.30
2019-03-09T22:42:45.581Z,67.37
2019-03-09T22:45:15.245Z,67.75
2019-03-09T22:47:43.704Z,67.96
2019-03-09T22:50:20.575Z,68.40
2019-03-09T22:52:49.085Z,68.78
2019-03-09T22:55:17.563Z,69.07
2019-03-09T22:57:45.993Z,69.72
2019-03-09T23:00:19.951Z,70.58
2019-03-09T23:02:48.457Z,70.95
2019-03-09T23:05:17.009Z,72.13
2019-03-09T23:07:45.505Z,72.31
2019-03-09T23:10:19.026Z,72.85
2019-03-09T23:12:47.508Z,73.51
2019-03-09T23:15:17.159Z,74.23
2019-03-09T23:17:45.926Z,75.26
2019-03-09T23:20:15.586Z,75.81
2019-03-09T23:22:44.231Z,76.82
2019-03-09T23:25:13.942Z,77.17
2019-03-09T23:27:42.414Z,77.71
2019-03-09T23:30:21.923Z,78.45
2019-03-09T23:32:50.411Z,78.63
2019-03-09T23:35:18.895Z,79.35
2019-03-09T23:37:47.866Z,79.98
2019-03-09T23:40:20.497Z,80.33
2019-03-09T23:42:48.931Z,80.12
2019-03-09T23:45:18.952Z,80.76
2019-03-09T23:47:47.489Z,81.32
2019-03-09T23:50:17.374Z,81.64
2019-03-09T23:52:46.412Z,81.89
2019-03-09T23:55:22.074Z,81.92
2019-03-09T23:57:46.551Z,82.32
